Time;durP1;ratioP1;P1;durP2;ratioP2;P2;SDS_P1;SDS_P2;PMS_P1;PMS_P2;Temp;Humidity;BMP_temperature;BMP_pressure;BME280_temperature;BME280_humidity;BME280_pressure;Samples;Min_cycle;Max_cycle;Signal;HPM_P1;HPM_P2
2020/12/13 00:00:49;;;;;;;71.95;32.15;;;2.70;96.50;;;;;;5022219;28;20033;-66
2020/12/13 00:03:14;;;;;;;79.97;32.60;;;2.70;96.60;;;;;;5028022;28;20117;-66
2020/12/13 00:05:40;;;;;;;64.35;31.08;;;2.80;96.60;;;;;;5015771;28;20030;-65
2020/12/13 00:08:06;;;;;;;68.35;31.30;;;2.70;96.60;;;;;;5015944;28;20025;-66
2020/12/13 00:10:32;;;;;;;74.68;32.13;;;2.80;96.60;;;;;;5014225;28;20064;-66
2020/12/13 00:12:57;;;;;;;71.80;32.08;;;2.70;96.60;;;;;;5013414;28;20061;-64
2020/12/13 00:15:23;;;;;;;79.13;32.63;;;2.80;96.60;;;;;;5013828;28;20069;-66
2020/12/13 00:17:48;;;;;;;82.65;33.85;;;2.70;96.50;;;;;;5013104;28;20037;-64
2020/12/13 00:20:15;;;;;;;72.60;32.08;;;2.70;96.50;;;;;;5015132;28;20064;-65
2020/12/13 00:22:40;;;;;;;73.93;32.10;;;2.70;96.50;;;;;;5013687;28;20116;-65
2020/12/13 00:25:06;;;;;;;68.20;32.30;;;2.70;96.50;;;;;;5010058;28;20083;-64
2020/12/13 00:27:33;;;;;;;71.68;31.98;;;2.80;96.50;;;;;;5014599;28;20171;-64
2020/12/13 00:29:58;;;;;;;67.53;30.42;;;2.80;96.60;;;;;;5013230;28;20021;-65
2020/12/13 00:32:31;;;;;;;77.97;32.17;;;2.80;96.60;;;;;;5013879;28;20021;-65
2020/12/13 00:34:57;;;;;;;81.53;34.63;;;2.80;96.60;;;;;;5013193;28;20068;-66
2020/12/13 00:37:24;;;;;;;71.35;33.15;;;2.80;96.50;;;;;;5014468;28;20120;-65
2020/12/13 00:39:50;;;;;;;77.55;32.60;;;2.80;96.60;;;;;;5014256;28;20106;-64
2020/12/13 00:42:16;;;;;;;70.85;32.13;;;2.80;96.60;;;;;;5028042;28;20596;-65
2020/12/13 00:44:41;;;;;;;72.75;31.67;;;2.80;96.60;;;;;;5026220;28;20091;-65
2020/12/13 00:47:07;;;;;;;74.38;32.40;;;2.80;96.60;;;;;;5025353;28;20033;-65
2020/12/13 00:49:33;;;;;;;76.05;31.92;;;2.80;96.70;;;;;;5026534;28;20025;-64
2020/12/13 00:52:05;;;;;;;72.97;30.60;;;2.80;96.70;;;;;;5026992;28;20033;-65
2020/12/13 00:54:31;;;;;;;65.65;30.35;;;2.70;96.70;;;;;;5025890;28;20196;-66
2020/12/13 00:56:57;;;;;;;82.20;32.25;;;2.70;96.80;;;;;;5026405;28;20287;-65
2020/12/13 00:59:22;;;;;;;79.13;31.58;;;2.80;96.80;;;;;;5027815;28;20036;-66
2020/12/13 01:01:48;;;;;;;83.45;33.17;;;2.70;96.80;;;;;;5025486;28;20048;-65
2020/12/13 01:04:14;;;;;;;79.10;31.67;;;2.70;96.80;;;;;;5025241;28;20025;-65
2020/12/13 01:06:40;;;;;;;81.80;32.90;;;2.70;96.90;;;;;;5028687;28;20041;-66
2020/12/13 01:09:05;;;;;;;84.78;34.05;;;2.70;96.90;;;;;;5021313;28;20030;-65
2020/12/13 01:11:32;;;;;;;84.50;31.73;;;2.70;97.00;;;;;;5022749;28;20025;-66
2020/12/13 01:13:59;;;;;;;84.10;33.58;;;2.70;97.00;;;;;;5006548;28;20105;-65
2020/12/13 01:16:26;;;;;;;82.45;34.33;;;2.70;97.00;;;;;;5026732;28;20029;-65
2020/12/13 01:18:53;;;;;;;80.55;32.80;;;2.70;97.00;;;;;;5026902;28;20381;-65
2020/12/13 01:21:21;;;;;;;87.80;33.08;;;2.80;97.10;;;;;;5025394;28;20865;-65
2020/12/13 01:23:47;;;;;;;84.65;34.67;;;2.80;97.00;;;;;;5022287;28;20013;-65
2020/12/13 01:26:17;;;;;;;92.22;34.58;;;2.80;97.10;;;;;;5005408;28;20553;-65
2020/12/13 01:28:43;;;;;;;83.97;33.33;;;2.70;97.00;;;;;;5026650;28;20116;-65
2020/12/13 01:31:13;;;;;;;85.45;33.28;;;2.80;97.00;;;;;;5026458;28;20045;-65
2020/12/13 01:33:39;;;;;;;82.25;34.28;;;2.80;97.10;;;;;;5024151;28;20389;-65
2020/12/13 01:36:09;;;;;;;84.20;33.88;;;2.70;97.00;;;;;;5024257;28;20038;-65
2020/12/13 01:38:34;;;;;;;88.07;33.55;;;2.70;97.10;;;;;;5007884;28;20401;-66
2020/12/13 01:41:00;;;;;;;83.22;33.90;;;2.80;97.10;;;;;;5025376;28;20032;-66
2020/12/13 01:43:26;;;;;;;100.00;35.10;;;2.70;97.10;;;;;;5025366;28;20041;-66
2020/12/13 01:45:52;;;;;;;77.32;32.58;;;2.70;97.10;;;;;;5024941;28;20025;-64
2020/12/13 01:48:18;;;;;;;85.35;33.17;;;2.70;97.10;;;;;;5030398;28;20036;-65
2020/12/13 01:50:57;;;;;;;78.28;31.35;;;2.70;97.10;;;;;;5024479;28;20021;-66
2020/12/13 01:53:24;;;;;;;95.15;33.85;;;2.70;97.10;;;;;;5022936;28;20049;-65
2020/12/13 01:55:52;;;;;;;94.32;34.58;;;2.70;97.10;;;;;;5023717;28;20052;-64
2020/12/13 01:58:30;;;;;;;84.82;33.53;;;2.70;97.10;;;;;;5031871;28;20104;-65
2020/12/13 02:00:59;;;;;;;92.97;33.33;;;2.70;97.10;;;;;;5025409;28;20097;-65
2020/12/13 02:03:28;;;;;;;85.82;34.63;;;2.70;97.20;;;;;;5024162;28;20040;-66
2020/12/13 02:06:01;;;;;;;92.85;34.60;;;2.70;97.10;;;;;;5068142;22;20131;-67
2020/12/13 02:08:39;;;;;;;92.03;34.85;;;2.70;97.10;;;;;;5082965;28;20027;-67
2020/12/13 02:11:06;;;;;;;86.57;34.05;;;2.70;97.10;;;;;;5086660;28;20074;-67
2020/12/13 02:13:31;;;;;;;107.10;35.08;;;2.70;97.10;;;;;;5077896;28;20627;-67
2020/12/13 02:15:57;;;;;;;96.93;33.60;;;2.70;97.10;;;;;;5079771;28;20399;-66
2020/12/13 02:18:23;;;;;;;87.57;33.13;;;2.80;97.10;;;;;;5082340;28;20106;-68
2020/12/13 02:20:48;;;;;;;92.97;34.80;;;2.70;97.10;;;;;;5084525;28;20434;-66
2020/12/13 02:23:14;;;;;;;95.30;33.63;;;2.70;97.10;;;;;;5079234;28;20373;-69
2020/12/13 02:25:40;;;;;;;95.80;34.88;;;2.70;97.10;;;;;;5077166;28;20495;-68
2020/12/13 02:28:05;;;;;;;91.70;33.30;;;2.70;97.10;;;;;;5087268;28;20028;-67
2020/12/13 02:30:31;;;;;;;89.72;33.70;;;2.80;97.10;;;;;;5074280;28;20036;-66
2020/12/13 02:32:57;;;;;;;91.03;34.70;;;2.70;97.10;;;;;;5089027;28;20028;-69
2020/12/13 02:35:23;;;;;;;103.50;35.20;;;2.70;97.10;;;;;;5080940;28;20024;-68
2020/12/13 02:37:49;;;;;;;92.57;33.70;;;2.80;97.10;;;;;;5085468;28;20416;-67
2020/12/13 02:40:15;;;;;;;95.57;34.90;;;2.80;97.10;;;;;;5082112;28;20025;-67
2020/12/13 02:42:41;;;;;;;93.35;33.58;;;2.80;97.10;;;;;;5085056;28;20057;-67
2020/12/13 02:45:06;;;;;;;91.47;33.67;;;2.80;97.10;;;;;;5077271;28;20032;-67
2020/12/13 02:47:32;;;;;;;99.03;34.75;;;2.80;97.10;;;;;;5082500;28;20085;-67
2020/12/13 02:49:58;;;;;;;90.80;33.58;;;2.80;97.10;;;;;;5080088;28;20506;-69
2020/12/13 02:52:23;;;;;;;86.90;32.45;;;2.80;97.00;;;;;;5080189;28;20400;-67
2020/12/13 02:54:49;;;;;;;98.93;32.13;;;2.80;97.00;;;;;;5088862;28;20031;-67
2020/12/13 02:57:14;;;;;;;88.53;32.30;;;2.80;97.00;;;;;;5087612;28;20028;-67
2020/12/13 02:59:40;;;;;;;93.45;32.25;;;2.80;97.00;;;;;;5083661;28;20028;-68
2020/12/13 03:02:06;;;;;;;96.30;33.08;;;2.70;97.00;;;;;;5088944;28;20028;-67
2020/12/13 03:04:31;;;;;;;90.13;31.45;;;2.80;97.00;;;;;;5091702;28;20028;-67
2020/12/13 03:06:57;;;;;;;90.25;30.77;;;2.80;97.00;;;;;;5090909;28;20453;-67
2020/12/13 03:09:22;;;;;;;92.40;33.80;;;2.80;97.00;;;;;;5079950;28;20031;-67
2020/12/13 03:11:48;;;;;;;79.53;30.98;;;2.80;96.90;;;;;;5083739;28;20032;-67
2020/12/13 03:14:13;;;;;;;80.10;31.48;;;2.80;97.00;;;;;;5087615;28;20032;-67
2020/12/13 03:16:39;;;;;;;86.20;32.00;;;2.80;97.00;;;;;;5084634;28;20036;-68
2020/12/13 03:19:04;;;;;;;81.90;30.83;;;2.80;97.00;;;;;;5089000;28;20617;-66
2020/12/13 03:21:31;;;;;;;86.50;31.98;;;2.80;97.00;;;;;;5091435;28;20031;-67
2020/12/13 03:23:56;;;;;;;86.85;31.77;;;2.80;97.00;;;;;;5077117;28;20054;-67
2020/12/13 03:26:22;;;;;;;96.05;34.00;;;2.80;97.10;;;;;;5082681;28;20028;-68
2020/12/13 03:28:48;;;;;;;86.63;30.58;;;2.80;97.10;;;;;;5084516;28;20063;-69
2020/12/13 03:31:13;;;;;;;87.03;30.88;;;2.80;97.10;;;;;;5084630;28;20511;-66
2020/12/13 03:33:39;;;;;;;82.78;30.38;;;2.80;97.20;;;;;;5084626;28;20028;-67
2020/12/13 03:36:04;;;;;;;84.60;30.00;;;2.80;97.10;;;;;;5086956;28;20446;-67
2020/12/13 03:38:30;;;;;;;81.10;30.63;;;2.80;97.20;;;;;;5078875;28;20051;-68
2020/12/13 03:40:56;;;;;;;92.63;33.03;;;2.80;97.20;;;;;;5090757;28;20106;-67
2020/12/13 03:43:21;;;;;;;86.03;30.25;;;2.80;97.30;;;;;;5083887;28;20491;-66
2020/12/13 03:45:47;;;;;;;84.18;31.90;;;2.80;97.30;;;;;;5090784;28;20035;-67
2020/12/13 03:48:12;;;;;;;80.13;29.60;;;2.80;97.30;;;;;;5080788;28;20035;-66
2020/12/13 03:50:38;;;;;;;88.30;30.70;;;2.80;97.30;;;;;;5089793;28;20108;-68
2020/12/13 03:53:08;;;;;;;84.20;30.38;;;2.80;97.30;;;;;;5083907;28;20020;-67
2020/12/13 03:55:34;;;;;;;95.53;31.75;;;2.80;97.30;;;;;;5081988;28;20090;-67
2020/12/13 03:58:00;;;;;;;87.78;31.35;;;2.80;97.40;;;;;;5085834;28;20123;-67
2020/12/13 04:00:27;;;;;;;90.75;30.90;;;2.80;97.40;;;;;;5086102;28;20031;-67
2020/12/13 04:02:56;;;;;;;88.07;31.15;;;2.80;97.40;;;;;;5089535;28;20031;-67
2020/12/13 04:05:23;;;;;;;92.53;33.35;;;2.80;97.40;;;;;;5080363;28;20024;-70
2020/12/13 04:07:50;;;;;;;94.00;31.98;;;2.80;97.40;;;;;;5088531;28;20036;-67
2020/12/13 04:10:15;;;;;;;101.45;32.20;;;2.80;97.40;;;;;;5085613;28;20040;-68
2020/12/13 04:12:41;;;;;;;99.90;31.73;;;2.80;97.40;;;;;;5088752;28;20391;-66
2020/12/13 04:15:07;;;;;;;94.07;33.22;;;2.80;97.40;;;;;;5085079;28;20039;-67
2020/12/13 04:17:32;;;;;;;94.43;31.38;;;2.80;97.40;;;;;;5083635;28;20051;-67
2020/12/13 04:19:58;;;;;;;101.22;32.70;;;2.80;97.40;;;;;;5077914;28;20370;-68
2020/12/13 04:22:23;;;;;;;96.22;32.55;;;2.80;97.40;;;;;;5089115;28;20057;-66
2020/12/13 04:24:49;;;;;;;86.82;30.55;;;2.80;97.40;;;;;;5079255;28;20024;-69
2020/12/13 04:27:15;;;;;;;102.32;32.17;;;2.80;97.30;;;;;;5083167;28;20036;-67
2020/12/13 04:29:41;;;;;;;94.35;31.45;;;2.80;97.40;;;;;;5086822;28;20043;-67
2020/12/13 04:32:07;;;;;;;95.97;30.67;;;2.80;97.40;;;;;;5078347;28;20427;-66
2020/12/13 04:34:33;;;;;;;91.60;31.15;;;2.80;97.40;;;;;;5089286;28;20036;-67
2020/12/13 04:36:59;;;;;;;88.30;31.35;;;2.80;97.40;;;;;;5089292;28;20045;-66
2020/12/13 04:39:25;;;;;;;85.97;31.17;;;2.80;97.40;;;;;;5081837;28;20047;-71
2020/12/13 04:41:51;;;;;;;90.82;31.08;;;2.80;97.30;;;;;;5083749;28;20059;-70
2020/12/13 04:44:19;;;;;;;88.65;30.27;;;2.80;97.30;;;;;;5079034;28;20042;-66
2020/12/13 04:46:46;;;;;;;83.38;29.15;;;2.80;97.30;;;;;;5083581;28;20471;-67
2020/12/13 04:49:12;;;;;;;83.38;29.90;;;2.80;97.30;;;;;;5081001;28;20111;-67
2020/12/13 04:51:40;;;;;;;80.65;29.48;;;2.80;97.30;;;;;;5074924;28;20104;-67
2020/12/13 04:54:06;;;;;;;88.03;30.50;;;2.80;97.20;;;;;;5079595;28;20510;-67
2020/12/13 04:56:33;;;;;;;85.97;28.50;;;2.80;97.30;;;;;;5086726;28;20024;-67
2020/12/13 04:59:03;;;;;;;92.53;30.25;;;2.80;97.30;;;;;;5086648;28;20047;-68
2020/12/13 05:01:29;;;;;;;90.95;29.30;;;2.80;97.30;;;;;;5088855;28;20488;-66
2020/12/13 05:03:55;;;;;;;76.72;28.88;;;2.80;97.30;;;;;;5084028;28;20032;-67
2020/12/13 05:06:22;;;;;;;86.32;30.27;;;2.80;97.30;;;;;;5085875;28;20028;-67
2020/12/13 05:08:48;;;;;;;89.78;30.60;;;2.90;97.30;;;;;;5082270;28;20032;-67
2020/12/13 05:11:16;;;;;;;81.15;28.88;;;2.90;97.30;;;;;;5076646;28;20035;-67
2020/12/13 05:13:42;;;;;;;75.53;29.02;;;2.90;97.30;;;;;;5080360;28;20308;-68
2020/12/13 05:16:09;;;;;;;82.68;29.90;;;2.80;97.30;;;;;;5074656;28;20033;-69
2020/12/13 05:18:41;;;;;;;80.97;30.13;;;2.90;97.30;;;;;;5082386;28;20073;-68
2020/12/13 05:21:07;;;;;;;76.38;27.67;;;2.90;97.30;;;;;;5080227;28;20069;-67
2020/12/13 05:23:33;;;;;;;83.10;29.20;;;2.90;97.20;;;;;;5083233;28;20024;-67
2020/12/13 05:25:59;;;;;;;78.78;28.70;;;2.90;97.20;;;;;;5086143;28;20396;-67
2020/12/13 05:28:25;;;;;;;86.13;27.73;;;2.90;97.20;;;;;;5086971;28;20081;-68
2020/12/13 05:30:52;;;;;;;83.65;28.17;;;2.90;97.20;;;;;;5081759;28;20036;-68
2020/12/13 05:33:30;;;;;;;78.85;28.40;;;2.90;97.20;;;;;;5074329;28;20039;-66
2020/12/13 05:36:04;;;;;;;76.88;28.02;;;2.90;97.10;;;;;;5074625;28;20028;-67
2020/12/13 05:38:34;;;;;;;78.43;27.65;;;2.90;97.20;;;;;;5075386;28;20089;-67
2020/12/13 05:41:00;;;;;;;86.53;27.80;;;3.00;97.20;;;;;;5075923;28;20024;-69
2020/12/13 05:43:29;;;;;;;74.38;27.20;;;2.90;97.20;;;;;;5085964;28;20082;-67
2020/12/13 05:51:19;;;;;;;84.32;26.75;;;2.90;97.10;;;;;;5087981;28;20038;-68
2020/12/13 05:53:45;;;;;;;75.47;27.98;;;2.90;97.10;;;;;;5083797;28;20036;-67
2020/12/13 05:56:11;;;;;;;78.78;28.45;;;3.00;97.10;;;;;;5084708;28;20048;-68
2020/12/13 05:58:37;;;;;;;77.25;28.90;;;3.00;97.10;;;;;;5077038;28;21779;-67
2020/12/13 06:01:05;;;;;;;86.68;27.65;;;2.90;97.10;;;;;;5082569;28;20396;-67
2020/12/13 06:03:37;;;;;;;84.47;27.85;;;3.00;97.10;;;;;;5088362;28;20477;-66
2020/12/13 06:06:08;;;;;;;79.63;26.63;;;3.00;97.10;;;;;;5072869;28;20024;-68
2020/12/13 06:08:48;;;;;;;74.68;25.23;;;3.00;97.10;;;;;;5079420;28;20039;-67
2020/12/13 06:11:15;;;;;;;70.55;26.58;;;3.00;97.10;;;;;;5084383;28;20032;-66
2020/12/13 06:13:45;;;;;;;79.40;27.20;;;3.00;97.00;;;;;;5088655;28;20055;-67
2020/12/13 06:16:12;;;;;;;80.40;27.48;;;3.00;97.00;;;;;;5081954;28;20074;-67
2020/12/13 06:18:39;;;;;;;67.65;26.45;;;3.00;97.00;;;;;;5086351;28;20024;-66
2020/12/13 06:21:08;;;;;;;85.10;27.67;;;3.00;97.10;;;;;;5077063;28;20037;-67
2020/12/13 06:23:35;;;;;;;80.10;26.35;;;3.00;97.10;;;;;;5086538;28;20430;-67
2020/12/13 06:26:01;;;;;;;83.45;27.58;;;3.00;97.10;;;;;;5075887;28;20032;-67
2020/12/13 06:28:27;;;;;;;76.85;27.50;;;3.00;97.10;;;;;;5087005;28;20066;-67
2020/12/13 06:30:53;;;;;;;79.18;27.02;;;3.00;97.10;;;;;;5085730;28;20031;-67
2020/12/13 06:33:21;;;;;;;77.88;27.98;;;3.00;97.10;;;;;;5085604;28;20016;-68
2020/12/13 06:35:50;;;;;;;73.80;26.60;;;3.00;97.10;;;;;;5079733;28;20033;-67
2020/12/13 06:38:17;;;;;;;76.13;26.75;;;3.00;97.20;;;;;;5075620;28;20119;-67
2020/12/13 06:40:46;;;;;;;68.68;25.52;;;3.00;97.10;;;;;;5075536;28;20031;-68
2020/12/13 06:43:12;;;;;;;75.30;25.83;;;3.00;97.20;;;;;;5084092;28;20400;-67
2020/12/13 06:45:37;;;;;;;86.75;27.50;;;3.00;97.10;;;;;;5076193;28;20025;-69
2020/12/13 06:48:03;;;;;;;76.65;27.77;;;3.00;97.20;;;;;;5077289;28;20032;-67
2020/12/13 06:50:28;;;;;;;73.88;26.13;;;3.00;97.10;;;;;;5081537;28;20425;-67
2020/12/13 06:52:54;;;;;;;71.57;26.67;;;3.00;97.20;;;;;;5087056;28;20491;-67
2020/12/13 06:55:33;;;;;;;75.72;26.95;;;3.00;97.20;;;;;;5082497;28;20029;-68
2020/12/13 06:58:00;;;;;;;73.90;28.00;;;3.00;97.20;;;;;;5082660;28;20062;-67
2020/12/13 07:00:26;;;;;;;83.22;27.67;;;3.00;97.20;;;;;;5080753;28;20024;-67
2020/12/13 07:02:57;;;;;;;79.32;26.90;;;3.00;97.10;;;;;;5084188;28;20020;-67
2020/12/13 07:05:42;;;;;;;79.53;26.52;;;3.00;97.20;;;;;;5076919;28;20028;-67
2020/12/13 07:08:12;;;;;;;77.95;28.38;;;3.10;97.20;;;;;;5081103;28;20476;-67
2020/12/13 07:10:46;;;;;;;70.13;27.83;;;3.10;97.10;;;;;;5082920;28;20415;-67
2020/12/13 07:13:18;;;;;;;80.43;27.17;;;3.00;97.10;;;;;;5084107;28;20520;-67
2020/12/13 07:16:11;;;;;;;80.13;27.75;;;3.10;97.10;;;;;;5080371;28;20034;-67
2020/12/13 07:18:42;;;;;;;76.90;25.63;;;3.10;97.10;;;;;;5073043;28;20082;-68
2020/12/13 07:21:07;;;;;;;80.93;28.07;;;3.10;97.10;;;;;;5084485;28;20451;-67
2020/12/13 07:23:35;;;;;;;69.65;25.20;;;3.10;97.10;;;;;;5085607;28;20366;-67
2020/12/13 07:26:01;;;;;;;87.15;27.63;;;3.10;97.10;;;;;;5086183;28;20020;-67
2020/12/13 07:28:29;;;;;;;80.78;26.88;;;3.00;97.10;;;;;;5085839;28;20020;-67
2020/12/13 07:30:57;;;;;;;81.03;28.02;;;3.00;97.10;;;;;;5078543;28;20484;-66
2020/12/13 07:33:23;;;;;;;89.97;27.77;;;3.00;97.20;;;;;;5077322;28;20031;-67
2020/12/13 07:35:48;;;;;;;83.97;27.95;;;3.00;97.30;;;;;;5079335;28;20060;-68
2020/12/13 07:38:14;;;;;;;84.00;28.20;;;3.00;97.30;;;;;;5080228;28;20032;-68
2020/12/13 07:40:40;;;;;;;86.13;28.33;;;3.10;97.30;;;;;;5088838;28;20024;-68
2020/12/13 07:43:05;;;;;;;83.32;26.15;;;3.10;97.30;;;;;;5085657;28;20040;-66
2020/12/13 07:45:31;;;;;;;86.97;26.98;;;3.10;97.30;;;;;;5085769;28;20578;-67
2020/12/13 07:48:03;;;;;;;74.03;26.52;;;3.10;97.30;;;;;;5085117;28;20035;-67
2020/12/13 07:50:44;;;;;;;82.25;26.02;;;3.10;97.30;;;;;;5083046;28;20036;-66
2020/12/13 07:53:09;;;;;;;79.15;27.25;;;3.10;97.40;;;;;;5086222;28;20020;-67
2020/12/13 07:55:42;;;;;;;78.55;26.95;;;3.10;97.30;;;;;;5081404;28;20100;-66
2020/12/13 07:58:07;;;;;;;79.95;26.15;;;3.10;97.30;;;;;;5087274;28;20039;-66
2020/12/13 08:00:33;;;;;;;72.80;25.77;;;3.10;97.30;;;;;;5079354;28;20328;-66
2020/12/13 08:02:58;;;;;;;83.18;27.17;;;3.10;97.30;;;;;;5087840;28;20054;-67
2020/12/13 08:05:25;;;;;;;84.20;28.30;;;3.10;97.30;;;;;;5082570;28;20084;-68
2020/12/13 08:07:58;;;;;;;76.43;24.48;;;3.10;97.30;;;;;;5082824;28;20066;-68
2020/12/13 08:10:24;;;;;;;86.65;27.08;;;3.10;97.30;;;;;;5080053;28;20032;-69
2020/12/13 08:12:52;;;;;;;83.70;27.40;;;3.10;97.40;;;;;;5081718;28;20024;-68
2020/12/13 08:15:19;;;;;;;88.45;26.13;;;3.10;97.30;;;;;;5087900;28;20031;-66
2020/12/13 08:18:07;;;;;;;90.15;28.27;;;3.10;97.40;;;;;;5086437;28;20062;-66
2020/12/13 08:20:38;;;;;;;79.30;27.27;;;3.10;97.40;;;;;;5086942;28;20096;-66
2020/12/13 08:23:06;;;;;;;76.70;25.63;;;3.10;97.40;;;;;;5087466;28;20028;-67
2020/12/13 08:25:35;;;;;;;79.78;26.20;;;3.10;97.40;;;;;;5085412;28;20036;-67
2020/12/13 08:28:05;;;;;;;86.05;27.15;;;3.20;97.40;;;;;;5081290;28;20100;-66
2020/12/13 08:30:32;;;;;;;74.18;24.52;;;3.20;97.40;;;;;;5085678;28;20295;-67
2020/12/13 08:33:01;;;;;;;74.32;27.27;;;3.20;97.40;;;;;;5081959;28;20020;-66
2020/12/13 08:35:32;;;;;;;70.88;26.65;;;3.20;97.40;;;;;;5086760;28;20032;-67
2020/12/13 08:38:02;;;;;;;80.97;25.73;;;3.20;97.30;;;;;;5087558;28;20512;-66
2020/12/13 08:40:44;;;;;;;76.35;26.15;;;3.20;97.30;;;;;;5079990;28;20079;-67
2020/12/13 08:43:12;;;;;;;79.57;25.83;;;3.20;97.40;;;;;;5088327;28;20116;-66
2020/12/13 08:45:38;;;;;;;82.93;26.30;;;3.20;97.30;;;;;;5086304;28;20111;-67
2020/12/13 08:48:05;;;;;;;81.85;26.52;;;3.20;97.30;;;;;;5088476;28;20047;-66
2020/12/13 08:50:39;;;;;;;81.85;26.85;;;3.20;97.30;;;;;;5081687;28;20020;-67
2020/12/13 08:53:27;;;;;;;83.43;26.85;;;3.30;97.30;;;;;;5085166;28;20064;-67
2020/12/13 08:56:03;;;;;;;75.80;25.95;;;3.20;97.30;;;;;;5087405;28;20043;-69
2020/12/13 08:58:28;;;;;;;82.30;27.17;;;3.20;97.30;;;;;;5087474;28;20039;-66
2020/12/13 09:01:06;;;;;;;73.78;26.58;;;3.20;97.30;;;;;;5086617;28;20024;-66
2020/12/13 09:03:32;;;;;;;74.43;25.65;;;3.30;97.30;;;;;;5085390;28;20507;-66
2020/12/13 09:05:58;;;;;;;74.53;26.08;;;3.20;97.30;;;;;;5085021;28;20048;-66
2020/12/13 09:08:23;;;;;;;82.40;27.20;;;3.20;97.40;;;;;;5083064;28;20028;-67
2020/12/13 09:10:51;;;;;;;78.35;25.67;;;3.20;97.40;;;;;;5082814;28;20051;-66
2020/12/13 09:13:18;;;;;;;69.68;26.23;;;3.20;97.40;;;;;;5088225;28;20480;-66
2020/12/13 09:15:44;;;;;;;87.22;26.65;;;3.20;97.40;;;;;;5083658;28;20032;-66
2020/12/13 09:18:10;;;;;;;75.40;24.30;;;3.20;97.50;;;;;;5087443;28;20050;-66
2020/12/13 09:20:36;;;;;;;75.05;25.67;;;3.20;97.60;;;;;;5083065;28;20115;-67
2020/12/13 09:23:12;;;;;;;73.13;26.15;;;3.20;97.60;;;;;;5085826;28;20028;-66
2020/12/13 09:25:45;;;;;;;78.75;25.48;;;3.30;97.60;;;;;;5082489;28;20049;-67
2020/12/13 09:28:12;;;;;;;64.68;24.67;;;3.30;97.60;;;;;;5085693;28;20036;-67
2020/12/13 09:30:39;;;;;;;68.88;23.80;;;3.30;97.60;;;;;;5083953;28;20376;-66
2020/12/13 09:33:05;;;;;;;75.20;24.73;;;3.30;97.70;;;;;;5083197;28;20038;-68
2020/12/13 09:35:31;;;;;;;68.13;23.70;;;3.30;97.70;;;;;;5082827;28;20436;-67
2020/12/13 09:38:02;;;;;;;72.32;23.83;;;3.30;97.70;;;;;;5083026;28;20071;-68
2020/12/13 09:40:28;;;;;;;73.45;24.75;;;3.40;97.70;;;;;;5081049;28;20093;-68
2020/12/13 09:42:57;;;;;;;69.70;24.00;;;3.30;97.80;;;;;;5082794;28;20028;-67
2020/12/13 09:45:22;;;;;;;71.07;22.83;;;3.40;97.80;;;;;;5078739;28;20168;-66
2020/12/13 09:47:48;;;;;;;63.10;21.90;;;3.40;97.80;;;;;;5084763;28;20409;-66
2020/12/13 09:50:17;;;;;;;63.20;21.73;;;3.40;97.80;;;;;;5084576;28;20055;-67
2020/12/13 09:52:43;;;;;;;75.30;24.13;;;3.40;97.80;;;;;;5082016;28;20069;-68
2020/12/13 09:55:08;;;;;;;58.30;22.88;;;3.40;97.90;;;;;;5086443;28;20384;-67
2020/12/13 09:57:34;;;;;;;59.10;21.70;;;3.40;97.90;;;;;;5077746;28;20024;-67
2020/12/13 09:59:59;;;;;;;54.50;21.90;;;3.50;97.90;;;;;;5085000;28;20108;-67
2020/12/13 10:02:25;;;;;;;59.92;22.17;;;3.50;97.90;;;;;;5082652;28;20029;-67
2020/12/13 10:04:51;;;;;;;57.92;22.30;;;3.50;97.90;;;;;;5083078;28;20090;-69
2020/12/13 10:10:00;;;;;;;58.85;21.98;;;3.60;97.90;;;;;;5076764;28;20038;-67
2020/12/13 10:12:26;;;;;;;53.42;20.60;;;3.60;97.90;;;;;;5083869;28;20115;-67
2020/12/13 10:14:52;;;;;;;51.28;18.92;;;3.70;97.80;;;;;;5083581;28;20035;-68
2020/12/13 10:17:17;;;;;;;49.53;19.02;;;3.70;97.80;;;;;;5080155;28;20063;-68
2020/12/13 10:19:43;;;;;;;47.15;19.85;;;3.70;97.80;;;;;;5083355;28;20017;-66
2020/12/13 10:22:08;;;;;;;51.10;20.48;;;3.70;97.80;;;;;;5079266;28;20042;-67
2020/12/13 10:24:34;;;;;;;54.28;19.63;;;3.70;97.70;;;;;;5084005;28;20495;-67
2020/12/13 10:27:00;;;;;;;48.15;18.45;;;3.70;97.70;;;;;;5084036;28;20028;-66
2020/12/13 10:29:25;;;;;;;45.72;18.45;;;3.80;97.70;;;;;;5078794;28;20022;-67
2020/12/13 10:31:51;;;;;;;42.38;18.85;;;3.80;97.70;;;;;;5079772;28;20027;-67
2020/12/13 10:34:17;;;;;;;38.10;18.08;;;3.80;97.70;;;;;;5083231;28;20454;-67
2020/12/13 10:36:44;;;;;;;38.75;17.15;;;3.90;97.70;;;;;;5086563;28;20059;-67
2020/12/13 10:39:11;;;;;;;37.25;17.33;;;3.80;97.60;;;;;;5083048;28;20024;-66
2020/12/13 10:41:37;;;;;;;38.63;16.17;;;3.90;97.70;;;;;;5085451;28;20128;-67
2020/12/13 10:44:03;;;;;;;34.75;16.55;;;3.90;97.50;;;;;;5079686;28;20020;-67
2020/12/13 10:46:29;;;;;;;35.47;16.63;;;4.00;97.50;;;;;;5082384;28;20027;-68
2020/12/13 10:48:55;;;;;;;37.65;16.73;;;4.00;97.60;;;;;;5084357;28;20039;-67
2020/12/13 10:51:21;;;;;;;37.90;16.98;;;4.10;97.60;;;;;;5083439;28;20403;-67
2020/12/13 10:53:47;;;;;;;29.73;14.43;;;4.20;97.70;;;;;;5081674;28;20032;-67
2020/12/13 10:56:13;;;;;;;29.65;14.90;;;4.20;97.50;;;;;;5084710;28;20101;-67
2020/12/13 10:58:40;;;;;;;28.17;14.77;;;4.20;97.50;;;;;;5081316;28;20035;-67
2020/12/13 11:01:08;;;;;;;28.05;13.93;;;4.30;97.50;;;;;;5080120;28;20105;-67
2020/12/13 11:03:34;;;;;;;28.95;13.52;;;4.20;97.20;;;;;;5083674;28;20017;-67
2020/12/13 11:05:59;;;;;;;26.63;14.13;;;4.30;97.30;;;;;;5080292;28;20031;-67
2020/12/13 11:08:25;;;;;;;27.00;13.60;;;4.40;97.20;;;;;;5081007;28;20451;-68
2020/12/13 11:10:52;;;;;;;29.17;14.15;;;4.50;97.20;;;;;;5084745;28;20434;-67
2020/12/13 11:13:18;;;;;;;31.80;13.90;;;4.50;97.10;;;;;;5081197;28;20044;-67
2020/12/13 11:15:44;;;;;;;26.35;13.65;;;4.60;96.90;;;;;;5085200;28;20040;-67
2020/12/13 11:18:10;;;;;;;32.00;14.57;;;4.60;96.90;;;;;;5087755;28;20063;-67
2020/12/13 11:20:36;;;;;;;30.63;13.60;;;4.70;97.00;;;;;;5081636;28;20055;-68
2020/12/13 11:23:02;;;;;;;28.05;14.02;;;4.90;97.10;;;;;;5090769;28;20032;-67
2020/12/13 11:25:27;;;;;;;28.23;13.80;;;5.00;97.00;;;;;;5086139;28;20020;-67
2020/12/13 11:27:53;;;;;;;25.55;12.32;;;4.80;96.50;;;;;;5086605;28;20028;-67
2020/12/13 11:30:18;;;;;;;25.38;13.30;;;4.90;96.70;;;;;;5082288;28;20024;-67
2020/12/13 11:32:44;;;;;;;26.55;13.20;;;4.90;96.80;;;;;;5085609;28;20028;-67
2020/12/13 11:35:12;;;;;;;24.85;13.25;;;4.80;96.70;;;;;;5090311;28;20032;-67
2020/12/13 11:37:38;;;;;;;29.90;14.05;;;4.80;96.70;;;;;;5080884;28;20106;-67
2020/12/13 11:40:04;;;;;;;27.98;13.68;;;4.80;96.90;;;;;;5082562;28;20563;-67
2020/12/13 11:42:30;;;;;;;28.98;14.30;;;4.70;97.00;;;;;;5088693;28;20020;-67
2020/12/13 11:44:55;;;;;;;26.55;13.50;;;4.70;97.00;;;;;;5077847;28;20032;-66
2020/12/13 11:47:21;;;;;;;27.15;13.48;;;4.70;97.00;;;;;;5081519;28;20062;-66
2020/12/13 11:49:46;;;;;;;27.23;13.20;;;4.60;97.10;;;;;;5086825;28;20020;-67
2020/12/13 11:52:12;;;;;;;31.67;14.85;;;4.60;97.20;;;;;;5088123;28;20051;-67
2020/12/13 11:54:37;;;;;;;32.35;14.40;;;4.70;97.40;;;;;;5089583;28;20062;-67
2020/12/13 11:57:04;;;;;;;33.13;15.27;;;4.70;97.40;;;;;;5087044;28;20028;-67
2020/12/13 11:59:29;;;;;;;27.45;14.48;;;4.80;97.40;;;;;;5088128;28;20099;-68
2020/12/13 12:01:56;;;;;;;29.83;14.40;;;4.80;97.40;;;;;;5080645;28;20124;-68
2020/12/13 12:04:22;;;;;;;30.58;13.90;;;4.80;97.30;;;;;;5085574;28;20489;-68
2020/12/13 12:06:48;;;;;;;28.90;13.98;;;4.80;97.30;;;;;;5083432;28;20046;-67
2020/12/13 12:09:15;;;;;;;30.50;13.95;;;4.80;97.30;;;;;;5086093;28;20036;-67
2020/12/13 12:11:41;;;;;;;27.77;14.93;;;4.80;97.50;;;;;;5086273;28;20248;-67
2020/12/13 12:14:11;;;;;;;31.15;15.55;;;4.80;97.50;;;;;;5087095;28;20104;-67
2020/12/13 12:16:38;;;;;;;31.05;14.23;;;4.90;97.60;;;;;;5083427;28;20081;-68
2020/12/13 12:19:04;;;;;;;28.75;14.13;;;4.90;97.50;;;;;;5081694;28;20128;-67
2020/12/13 12:21:31;;;;;;;31.98;14.60;;;4.90;97.60;;;;;;5083988;28;20103;-67
2020/12/13 12:23:57;;;;;;;32.42;13.95;;;4.90;97.50;;;;;;5085712;28;20447;-67
2020/12/13 12:26:29;;;;;;;34.60;14.82;;;4.90;97.60;;;;;;5081893;28;20403;-68
2020/12/13 12:28:54;;;;;;;30.17;14.55;;;5.00;97.60;;;;;;5089706;28;20047;-67
2020/12/13 12:31:20;;;;;;;27.33;14.57;;;5.00;97.60;;;;;;5083260;28;20026;-69
2020/12/13 12:33:46;;;;;;;30.80;14.82;;;4.90;97.60;;;;;;5082946;28;20020;-68
2020/12/13 12:36:21;;;;;;;30.95;14.38;;;5.00;97.60;;;;;;5082532;28;20473;-67
2020/12/13 12:38:48;;;;;;;37.55;14.52;;;4.90;97.60;;;;;;5083607;28;20369;-67
2020/12/13 12:41:15;;;;;;;36.45;14.82;;;4.90;97.60;;;;;;5079678;28;20047;-68
2020/12/13 12:43:42;;;;;;;33.30;14.25;;;4.90;97.70;;;;;;5078345;28;20587;-67